createdAt,value
2019-05-29T00:00:30.354Z,82.89
2019-05-29T00:02:56.617Z,83.02
2019-05-29T00:05:22.836Z,83.13
2019-05-29T00:07:49.157Z,83.11
2019-05-29T00:10:15.555Z,83.27
2019-05-29T00:12:41.833Z,83.20
2019-05-29T00:15:08.528Z,83.09
2019-05-29T00:17:34.936Z,82.96
2019-05-29T00:20:01.304Z,83.13
2019-05-29T00:22:27.415Z,83.15
2019-05-29T00:24:53.710Z,83.33
2019-05-29T00:27:19.837Z,83.47
2019-05-29T00:29:46.120Z,83.50
2019-05-29T00:32:13.492Z,83.38
2019-05-29T00:34:39.842Z,83.39
2019-05-29T00:37:06.368Z,83.63
2019-05-29T00:39:32.756Z,83.61
2019-05-29T00:41:59.182Z,83.75
2019-05-29T00:44:33.903Z,83.67
2019-05-29T00:46:59.834Z,83.48
2019-05-29T00:49:29.874Z,83.47
2019-05-29T00:52:10.618Z,83.40
2019-05-29T00:54:37.172Z,83.43
2019-05-29T00:57:03.601Z,83.43
2019-05-29T00:59:29.867Z,83.40
2019-05-29T01:01:56.201Z,83.68
2019-05-29T01:04:23.468Z,83.64
2019-05-29T01:06:49.682Z,83.39
2019-05-29T01:09:16.474Z,83.59
2019-05-29T01:11:42.873Z,83.69
2019-05-29T01:14:08.973Z,83.72
2019-05-29T01:16:35.233Z,83.61
2019-05-29T01:19:20.334Z,83.90
2019-05-29T01:21:46.672Z,83.94
2019-05-29T01:24:12.979Z,83.75
2019-05-29T01:26:39.420Z,83.65
2019-05-29T01:29:05.557Z,83.62
2019-05-29T01:31:31.827Z,83.46
2019-05-29T01:33:57.945Z,83.24
2019-05-29T01:36:24.248Z,83.11
2019-05-29T01:38:50.361Z,83.09
2019-05-29T01:41:17.126Z,83.33
2019-05-29T01:43:43.577Z,83.51
2019-05-29T01:46:09.927Z,83.58
2019-05-29T01:48:36.258Z,83.61
2019-05-29T01:51:03.138Z,83.55
2019-05-29T01:53:29.470Z,83.65
2019-05-29T01:55:55.681Z,83.61
2019-05-29T01:58:22.075Z,83.34
2019-05-29T02:00:52.356Z,83.59
2019-05-29T02:03:19.786Z,83.50
2019-05-29T02:05:46.126Z,83.60
2019-05-29T02:08:12.428Z,83.68
2019-05-29T02:10:40.203Z,83.33
2019-05-29T02:13:17.250Z,83.37
2019-05-29T02:15:45.546Z,83.33
2019-05-29T02:18:15.080Z,83.52
2019-05-29T02:20:41.410Z,83.61
2019-05-29T02:23:07.665Z,83.25
2019-05-29T02:25:34.764Z,83.61
2019-05-29T02:28:01.008Z,83.88
2019-05-29T02:30:30.323Z,83.88
2019-05-29T02:32:55.388Z,83.85
2019-05-29T02:35:22.602Z,83.89
2019-05-29T02:37:49.811Z,83.80
2019-05-29T02:40:16.083Z,83.79
2019-05-29T02:42:42.484Z,83.75
2019-05-29T02:45:09.121Z,83.65
2019-05-29T02:47:35.349Z,83.67
2019-05-29T02:50:13.512Z,83.70
2019-05-29T02:52:41.228Z,83.48
2019-05-29T02:55:10.605Z,83.25
2019-05-29T02:57:36.875Z,83.23
2019-05-29T03:00:06.339Z,83.18
2019-05-29T03:02:33.674Z,83.10
2019-05-29T03:04:59.954Z,83.31
2019-05-29T03:07:26.488Z,83.12
2019-05-29T03:09:53.299Z,82.79
2019-05-29T03:12:19.500Z,82.89
2019-05-29T03:14:45.682Z,82.66
2019-05-29T03:17:11.828Z,82.57
2019-05-29T03:19:38.096Z,82.51
2019-05-29T03:22:04.280Z,82.79
2019-05-29T03:24:33.037Z,82.74
2019-05-29T03:27:00.746Z,82.72
2019-05-29T03:29:32.079Z,82.54
2019-05-29T03:35:15.396Z,82.27
2019-05-29T03:43:24.119Z,81.85
2019-05-29T03:45:57.748Z,81.76
2019-05-29T03:48:40.724Z,81.71
2019-05-29T03:54:06.202Z,81.66
2019-05-29T03:59:17.646Z,81.62
2019-05-29T04:01:44.220Z,81.50
2019-05-29T04:04:17.411Z,81.54
2019-05-29T04:06:51.056Z,81.28
2019-05-29T04:15:08.923Z,80.96
2019-05-29T04:17:38.051Z,80.76
2019-05-29T04:20:05.571Z,80.62
2019-05-29T04:22:36.974Z,80.62
2019-05-29T04:25:05.864Z,80.58
2019-05-29T04:27:34.328Z,80.58
2019-05-29T04:30:01.678Z,80.57
2019-05-29T04:32:28.264Z,80.59
2019-05-29T04:34:54.798Z,80.54
2019-05-29T04:37:21.360Z,80.23
2019-05-29T04:39:57.152Z,80.15
2019-05-29T04:42:29.132Z,80.21
2019-05-29T04:44:55.771Z,80.17
2019-05-29T04:47:22.147Z,80.07
2019-05-29T04:49:48.561Z,80.17
2019-05-29T04:52:14.895Z,79.92
2019-05-29T04:54:41.153Z,80.06
2019-05-29T04:57:07.254Z,80.20
2019-05-29T04:59:33.564Z,80.05
2019-05-29T05:02:02.198Z,80.25
2019-05-29T05:04:29.110Z,80.01
2019-05-29T05:06:57.739Z,80.05
2019-05-29T05:09:24.523Z,80.24
2019-05-29T05:11:51.292Z,80.15
2019-05-29T05:14:17.978Z,80.26
2019-05-29T05:16:44.916Z,80.23
2019-05-29T05:19:13.154Z,80.21
2019-05-29T05:21:40.279Z,80.09
2019-05-29T05:24:06.502Z,80.19
2019-05-29T05:26:32.782Z,80.18
2019-05-29T05:29:00.120Z,80.08
2019-05-29T05:31:26.429Z,79.95
2019-05-29T05:33:52.637Z,80.15
2019-05-29T05:36:18.832Z,80.29
2019-05-29T05:38:45.200Z,80.57
2019-05-29T05:41:11.479Z,80.63
2019-05-29T05:43:37.596Z,80.43
2019-05-29T05:46:04.845Z,80.36
2019-05-29T05:48:31.079Z,80.21
2019-05-29T05:50:57.464Z,80.30
2019-05-29T05:53:23.709Z,80.01
2019-05-29T05:55:49.891Z,80.26
2019-05-29T05:58:16.118Z,79.98
2019-05-29T06:00:42.300Z,79.49
2019-05-29T06:03:08.505Z,79.36
2019-05-29T06:05:36.045Z,79.46
2019-05-29T06:08:02.719Z,79.15
2019-05-29T06:10:30.239Z,79.01
2019-05-29T06:12:56.463Z,79.02
2019-05-29T06:15:22.735Z,78.86
2019-05-29T06:18:05.081Z,78.66
2019-05-29T06:20:17.146Z,78.50
2019-05-29T06:22:43.648Z,78.19
2019-05-29T06:25:10.284Z,78.08
2019-05-29T06:27:37.133Z,77.79
2019-05-29T06:30:06.588Z,77.72
2019-05-29T06:32:33.451Z,77.35
2019-05-29T06:34:59.992Z,76.87
2019-05-29T06:37:26.099Z,76.91
2019-05-29T06:39:52.316Z,76.94
2019-05-29T06:42:18.598Z,77.14
2019-05-29T06:44:47.660Z,77.32
2019-05-29T06:47:13.069Z,77.04
2019-05-29T06:49:40.120Z,77.07
2019-05-29T06:52:09.210Z,77.02
2019-05-29T06:54:35.660Z,76.63
2019-05-29T06:57:04.008Z,76.82
2019-05-29T06:59:30.267Z,76.46
2019-05-29T07:01:57.680Z,76.53
2019-05-29T07:04:23.783Z,76.54
2019-05-29T07:06:50.004Z,76.29
2019-05-29T07:09:16.210Z,75.70
2019-05-29T07:11:43.497Z,75.51
2019-05-29T07:14:09.874Z,75.98
2019-05-29T07:16:45.313Z,75.58
2019-05-29T07:21:32.543Z,74.85
2019-05-29T07:23:58.637Z,74.41
2019-05-29T07:26:24.951Z,74.57
2019-05-29T07:29:07.401Z,74.11
2019-05-29T07:31:19.383Z,74.03
2019-05-29T07:33:45.588Z,74.03
2019-05-29T07:36:12.037Z,73.49
2019-05-29T07:38:39.552Z,72.92
2019-05-29T07:41:06.160Z,71.90
2019-05-29T07:43:33.393Z,71.64
2019-05-29T07:45:59.754Z,72.04
2019-05-29T07:48:26.037Z,71.82
2019-05-29T07:51:06.281Z,71.56
2019-05-29T07:53:20.871Z,70.70
2019-05-29T07:55:47.229Z,70.73
2019-05-29T07:58:13.507Z,70.34
2019-05-29T08:01:00.958Z,70.88
2019-05-29T08:03:08.035Z,70.58
2019-05-29T08:05:34.394Z,70.13
2019-05-29T08:08:00.748Z,70.11
2019-05-29T08:10:27.302Z,69.78
2019-05-29T08:12:56.027Z,70.09
2019-05-29T08:15:22.476Z,70.16
2019-05-29T08:17:50.152Z,69.80
2019-05-29T08:20:17.254Z,70.28
2019-05-29T08:22:44.460Z,70.46
2019-05-29T08:25:11.099Z,70.55
2019-05-29T08:27:37.326Z,69.76
2019-05-29T08:30:08.641Z,69.52
2019-05-29T08:32:34.870Z,69.07
2019-05-29T08:35:01.192Z,68.98
2019-05-29T08:37:27.364Z,69.15
2019-05-29T08:39:53.637Z,69.03
2019-05-29T08:42:23.250Z,68.83
2019-05-29T08:44:48.086Z,69.30
2019-05-29T08:47:14.500Z,68.68
2019-05-29T08:49:41.688Z,68.14
2019-05-29T08:52:12.212Z,68.04
2019-05-29T08:54:36.301Z,68.02
2019-05-29T08:57:02.728Z,67.78
2019-05-29T08:59:28.925Z,68.40
2019-05-29T09:01:55.678Z,68.13
2019-05-29T09:04:22.040Z,67.93
2019-05-29T09:06:49.202Z,67.86
2019-05-29T09:09:15.510Z,68.14
2019-05-29T09:11:43.007Z,68.00
2019-05-29T09:14:09.260Z,67.50
2019-05-29T09:16:35.575Z,68.32
2019-05-29T09:19:01.787Z,67.82
2019-05-29T09:21:28.223Z,68.00
2019-05-29T09:23:58.334Z,67.12
2019-05-29T09:26:25.505Z,66.59
2019-05-29T09:28:50.829Z,66.15
2019-05-29T09:31:20.313Z,66.16
2019-05-29T09:33:51.784Z,65.74
2019-05-29T09:36:18.806Z,65.16
2019-05-29T09:38:45.524Z,64.95
2019-05-29T09:41:15.715Z,64.24
2019-05-29T09:43:57.738Z,65.45
2019-05-29T09:46:12.643Z,65.79
2019-05-29T09:48:49.232Z,66.17
2019-05-29T09:51:20.601Z,66.11
2019-05-29T09:53:36.293Z,66.05
2019-05-29T09:56:05.499Z,66.13
2019-05-29T09:58:32.184Z,66.17
2019-05-29T10:01:17.148Z,65.89
2019-05-29T10:03:26.695Z,65.27
2019-05-29T10:05:54.649Z,65.13
2019-05-29T10:08:21.628Z,64.94
2019-05-29T10:10:48.295Z,64.27
2019-05-29T10:13:15.544Z,62.82
2019-05-29T10:15:49.447Z,61.60
2019-05-29T10:18:31.284Z,61.80
2019-05-29T10:20:44.184Z,60.99
2019-05-29T10:23:10.498Z,61.15
2019-05-29T10:25:38.099Z,59.83
2019-05-29T10:28:06.103Z,60.25
2019-05-29T10:30:32.715Z,61.22
2019-05-29T10:32:59.030Z,61.21
2019-05-29T10:35:25.741Z,61.40
2019-05-29T10:37:53.169Z,62.29
2019-05-29T10:40:19.639Z,62.41
2019-05-29T10:42:47.142Z,61.63
2019-05-29T10:45:14.573Z,61.73
2019-05-29T10:47:41.098Z,60.65
2019-05-29T10:50:08.974Z,60.02
2019-05-29T10:52:35.519Z,58.09
2019-05-29T10:55:01.855Z,57.92
2019-05-29T10:57:28.499Z,56.42
2019-05-29T10:59:54.920Z,51.72
2019-05-29T11:02:23.118Z,53.53
2019-05-29T11:04:53.026Z,54.67
2019-05-29T11:07:17.415Z,55.43
2019-05-29T11:09:45.043Z,55.84
2019-05-29T11:12:12.571Z,55.92
2019-05-29T11:14:38.805Z,56.16
2019-05-29T11:17:05.425Z,56.14
2019-05-29T11:19:35.700Z,54.98
2019-05-29T11:22:24.784Z,54.48
2019-05-29T11:24:30.293Z,53.18
2019-05-29T11:26:56.737Z,52.45
2019-05-29T11:29:23.208Z,52.01
2019-05-29T11:31:53.239Z,51.51
2019-05-29T11:34:19.541Z,51.86
2019-05-29T11:36:45.800Z,52.72
2019-05-29T11:39:13.339Z,53.74
2019-05-29T11:41:39.723Z,52.77
2019-05-29T11:44:10.232Z,52.83
2019-05-29T11:46:39.625Z,52.83
2019-05-29T11:49:07.929Z,51.64
2019-05-29T11:51:36.065Z,49.41
2019-05-29T11:54:02.579Z,47.66
2019-05-29T11:56:28.747Z,43.60
2019-05-29T11:58:54.971Z,39.65
2019-05-29T12:01:23.213Z,36.63
2019-05-29T12:04:13.127Z,36.32
2019-05-29T12:06:17.817Z,33.07
2019-05-29T12:08:44.022Z,33.34
2019-05-29T12:11:10.225Z,35.12
2019-05-29T12:13:36.520Z,36.18
2019-05-29T12:16:04.018Z,36.69
2019-05-29T12:18:30.232Z,39.12
2019-05-29T12:20:58.291Z,41.51
2019-05-29T12:23:27.044Z,42.91
2019-05-29T12:26:12.840Z,44.23
2019-05-29T12:28:21.399Z,45.02
2019-05-29T12:30:47.772Z,45.46
2019-05-29T12:33:13.985Z,45.62
2019-05-29T12:35:40.276Z,42.33
2019-05-29T12:38:06.468Z,41.22
2019-05-29T12:40:33.249Z,38.57
2019-05-29T12:43:00.239Z,35.47
2019-05-29T12:45:27.125Z,34.37
2019-05-29T12:47:54.179Z,34.46
2019-05-29T12:50:21.531Z,34.94
2019-05-29T12:52:49.778Z,34.91
2019-05-29T12:55:16.362Z,35.70
2019-05-29T12:57:42.707Z,35.09
2019-05-29T13:00:13.844Z,34.65
2019-05-29T13:02:42.126Z,34.13
2019-05-29T13:05:19.308Z,33.19
2019-05-29T13:07:40.172Z,33.51
2019-05-29T13:10:06.979Z,33.75
2019-05-29T13:12:33.771Z,32.85
2019-05-29T13:15:05.394Z,31.31
2019-05-29T13:17:31.625Z,31.59
2019-05-29T13:20:07.186Z,30.36
2019-05-29T13:22:28.366Z,29.08
2019-05-29T13:24:57.846Z,28.25
2019-05-29T13:27:24.181Z,28.99
2019-05-29T13:29:50.498Z,26.51
2019-05-29T13:32:19.665Z,27.96
2019-05-29T13:34:46.241Z,30.38
2019-05-29T13:37:12.617Z,31.37
2019-05-29T13:39:38.886Z,32.47
2019-05-29T13:42:10.748Z,29.65
2019-05-29T13:44:33.673Z,29.31
2019-05-29T13:47:00.088Z,29.66
2019-05-29T13:49:26.254Z,28.07
2019-05-29T13:51:52.573Z,29.40
2019-05-29T13:54:18.762Z,31.01
2019-05-29T13:56:45.037Z,31.66
2019-05-29T13:59:11.147Z,32.30
2019-05-29T14:01:37.485Z,33.32
2019-05-29T14:04:05.202Z,33.24
2019-05-29T14:06:31.858Z,32.98
2019-05-29T14:08:58.989Z,32.19
2019-05-29T14:11:25.678Z,32.62
2019-05-29T14:13:51.898Z,32.34
2019-05-29T14:16:19.219Z,31.08
2019-05-29T14:18:45.631Z,29.97
2019-05-29T14:21:13.351Z,28.90
2019-05-29T14:23:40.100Z,29.45
2019-05-29T14:26:06.556Z,27.41
2019-05-29T14:28:32.816Z,27.69
2019-05-29T14:30:58.997Z,27.96
2019-05-29T14:33:25.297Z,28.03
2019-05-29T14:35:51.450Z,28.67
2019-05-29T14:38:17.682Z,28.11
2019-05-29T14:40:43.799Z,28.64
2019-05-29T14:43:13.684Z,28.31
2019-05-29T14:45:38.146Z,27.77
2019-05-29T14:48:06.008Z,28.09
2019-05-29T14:50:32.550Z,26.66
2019-05-29T14:52:58.895Z,26.91
2019-05-29T14:55:25.170Z,27.37
2019-05-29T14:57:51.295Z,27.20
2019-05-29T15:00:24.728Z,29.58
2019-05-29T15:02:46.194Z,29.75
2019-05-29T15:05:14.756Z,31.54
2019-05-29T15:07:41.218Z,30.96
2019-05-29T15:10:21.783Z,28.99
2019-05-29T15:12:36.972Z,28.00
2019-05-29T15:15:06.728Z,28.20
2019-05-29T15:17:33.805Z,29.48
2019-05-29T15:20:07.422Z,29.10
2019-05-29T15:22:34.576Z,29.41
2019-05-29T15:25:10.878Z,28.98
2019-05-29T15:27:29.829Z,30.78
2019-05-29T15:29:56.204Z,31.57
2019-05-29T15:32:22.735Z,32.03
2019-05-29T15:34:49.147Z,31.52
2019-05-29T15:37:18.241Z,31.98
2019-05-29T15:39:43.766Z,33.57
2019-05-29T15:42:10.912Z,32.40
2019-05-29T15:44:37.447Z,31.63
2019-05-29T15:47:03.774Z,31.21
2019-05-29T15:49:30.034Z,31.42
2019-05-29T15:51:56.303Z,30.68
2019-05-29T15:54:22.662Z,30.91
2019-05-29T15:56:49.664Z,31.92
2019-05-29T15:59:17.124Z,33.21
2019-05-29T16:01:46.185Z,34.14
2019-05-29T16:04:13.703Z,35.28
2019-05-29T16:06:40.966Z,35.75
2019-05-29T16:09:08.221Z,36.14
2019-05-29T16:11:35.262Z,36.99
2019-05-29T16:14:01.644Z,37.40
2019-05-29T16:16:28.078Z,37.79
2019-05-29T16:18:54.523Z,38.07
2019-05-29T16:21:20.848Z,38.46
2019-05-29T16:23:47.197Z,38.56
2019-05-29T16:26:31.810Z,39.03
2019-05-29T16:28:58.149Z,39.24
2019-05-29T16:31:24.511Z,40.13
2019-05-29T16:33:51.107Z,40.31
2019-05-29T16:36:18.657Z,41.09
2019-05-29T16:38:46.314Z,41.10
2019-05-29T16:41:13.757Z,41.03
2019-05-29T16:43:43.558Z,40.76
2019-05-29T16:46:14.224Z,40.90
2019-05-29T16:48:38.534Z,41.07
2019-05-29T16:51:05.077Z,41.36
2019-05-29T16:53:31.411Z,40.98
2019-05-29T16:55:57.847Z,40.91
2019-05-29T16:58:24.228Z,40.88
2019-05-29T17:00:50.412Z,41.22
2019-05-29T17:03:17.662Z,41.83
2019-05-29T17:05:43.927Z,42.27
2019-05-29T17:08:10.548Z,42.23
2019-05-29T17:10:36.926Z,41.95
2019-05-29T17:13:04.981Z,41.46
2019-05-29T17:15:31.178Z,42.30
2019-05-29T17:17:57.590Z,42.27
2019-05-29T17:20:39.291Z,42.48
2019-05-29T17:23:05.804Z,42.44
2019-05-29T17:25:33.310Z,42.38
2019-05-29T17:27:59.585Z,43.15
2019-05-29T17:30:30.954Z,43.38
2019-05-29T17:32:57.481Z,43.18
2019-05-29T17:35:23.697Z,43.61
2019-05-29T17:37:49.948Z,43.90
2019-05-29T17:40:17.022Z,44.07
2019-05-29T17:42:43.601Z,43.92
2019-05-29T17:45:11.133Z,44.46
2019-05-29T17:47:38.473Z,44.17
2019-05-29T17:50:06.558Z,44.66
2019-05-29T17:52:33.914Z,44.86
2019-05-29T17:55:00.274Z,44.76
2019-05-29T17:57:28.621Z,45.14
2019-05-29T17:59:54.951Z,45.28
2019-05-29T18:02:24.716Z,45.82
2019-05-29T18:04:53.443Z,46.17
2019-05-29T18:07:20.634Z,46.57
2019-05-29T18:09:47.099Z,46.45
2019-05-29T18:12:14.441Z,46.84
2019-05-29T18:14:40.882Z,46.23
2019-05-29T18:17:07.346Z,46.59
2019-05-29T18:19:33.870Z,47.07
2019-05-29T18:22:00.073Z,47.43
2019-05-29T18:24:27.920Z,47.12
2019-05-29T18:26:54.835Z,47.07
2019-05-29T18:29:22.220Z,47.53
2019-05-29T18:31:48.866Z,47.71
2019-05-29T18:34:15.187Z,47.51
2019-05-29T18:36:41.532Z,47.79
2019-05-29T18:39:07.934Z,47.95
2019-05-29T18:41:34.586Z,47.85
2019-05-29T18:44:00.908Z,48.39
2019-05-29T18:46:27.299Z,48.60
2019-05-29T18:48:53.483Z,48.72
2019-05-29T18:51:20.446Z,49.12
2019-05-29T18:53:46.826Z,49.66
2019-05-29T18:56:13.254Z,49.78
2019-05-29T18:58:39.542Z,49.89
2019-05-29T19:01:05.759Z,50.21
2019-05-29T19:03:32.702Z,50.93
2019-05-29T19:05:58.943Z,52.23
2019-05-29T19:08:25.737Z,52.89
2019-05-29T19:10:52.054Z,53.59
2019-05-29T19:13:18.243Z,54.79
2019-05-29T19:15:44.703Z,55.61
2019-05-29T19:18:11.122Z,56.01
2019-05-29T19:20:37.384Z,56.12
2019-05-29T19:23:03.766Z,56.64
2019-05-29T19:25:30.831Z,57.00
2019-05-29T19:27:57.394Z,57.91
2019-05-29T19:30:24.837Z,58.17
2019-05-29T19:32:51.132Z,58.62
2019-05-29T19:35:17.542Z,59.01
2019-05-29T19:37:43.656Z,59.47
2019-05-29T19:40:10.608Z,60.14
2019-05-29T19:42:37.020Z,60.24
2019-05-29T19:45:05.880Z,60.49
2019-05-29T19:47:32.782Z,60.75
2019-05-29T19:49:59.218Z,61.36
2019-05-29T19:52:25.559Z,61.53
2019-05-29T19:54:51.799Z,62.08
2019-05-29T19:57:18.215Z,62.17
2019-05-29T19:59:44.623Z,62.18
2019-05-29T20:02:11.058Z,62.33
2019-05-29T20:04:37.362Z,62.27
2019-05-29T20:07:04.799Z,61.97
2019-05-29T20:09:31.276Z,61.93
2019-05-29T20:11:57.520Z,61.95
2019-05-29T20:14:23.773Z,62.46
2019-05-29T20:16:49.888Z,62.60
2019-05-29T20:19:16.206Z,62.79
2019-05-29T20:21:42.312Z,62.54
2019-05-29T20:24:08.567Z,62.97
2019-05-29T20:26:35.190Z,62.84
2019-05-29T20:29:01.605Z,63.18
2019-05-29T20:31:27.717Z,63.30
2019-05-29T20:33:53.978Z,63.34
2019-05-29T20:36:20.145Z,63.18
2019-05-29T20:38:46.548Z,63.09
2019-05-29T20:41:13.218Z,63.00
2019-05-29T20:43:39.854Z,63.03
2019-05-29T20:46:05.933Z,63.14
2019-05-29T20:48:32.540Z,63.14
2019-05-29T20:50:58.962Z,63.74
2019-05-29T20:53:25.428Z,63.90
2019-05-29T20:55:51.590Z,63.96
2019-05-29T20:58:24.608Z,63.46
2019-05-29T21:00:46.233Z,63.99
2019-05-29T21:03:12.439Z,63.72
2019-05-29T21:05:39.142Z,64.23
2019-05-29T21:08:05.456Z,64.57
2019-05-29T21:10:33.009Z,64.26
2019-05-29T21:12:59.477Z,64.69
2019-05-29T21:15:25.947Z,65.10
2019-05-29T21:17:52.283Z,65.16
2019-05-29T21:20:18.714Z,65.11
2019-05-29T21:22:45.160Z,65.49
2019-05-29T21:25:16.373Z,65.56
2019-05-29T21:27:43.853Z,65.68
2019-05-29T21:30:11.014Z,65.70
2019-05-29T21:32:37.917Z,66.00
2019-05-29T21:35:05.389Z,66.10
2019-05-29T21:37:31.601Z,66.17
2019-05-29T21:39:57.993Z,66.25
2019-05-29T21:42:24.147Z,66.22
2019-05-29T21:44:50.464Z,66.52
2019-05-29T21:47:16.688Z,66.48
2019-05-29T21:49:43.336Z,66.60
2019-05-29T21:52:09.596Z,66.53
2019-05-29T21:54:37.222Z,66.44
2019-05-29T21:57:03.813Z,66.40
2019-05-29T21:59:30.243Z,66.43
2019-05-29T22:01:56.645Z,66.32
2019-05-29T22:04:23.366Z,66.49
2019-05-29T22:06:50.866Z,66.61
2019-05-29T22:09:18.369Z,66.72
2019-05-29T22:11:44.652Z,66.68
2019-05-29T22:14:10.930Z,66.83
2019-05-29T22:16:37.244Z,66.84
2019-05-29T22:19:04.347Z,67.08
2019-05-29T22:21:30.825Z,67.23
2019-05-29T22:23:57.190Z,67.60
2019-05-29T22:26:23.324Z,67.88
2019-05-29T22:28:49.684Z,68.06
2019-05-29T22:31:16.307Z,68.15
2019-05-29T22:33:42.585Z,68.36
2019-05-29T22:36:09.292Z,68.46
2019-05-29T22:38:35.662Z,68.55
2019-05-29T22:41:02.046Z,68.85
2019-05-29T22:43:28.446Z,68.96
2019-05-29T22:45:55.606Z,69.51
2019-05-29T22:48:21.997Z,69.72
2019-05-29T22:50:48.647Z,70.25
2019-05-29T22:53:15.028Z,70.39
2019-05-29T22:55:41.249Z,70.58
2019-05-29T22:58:07.554Z,70.66
2019-05-29T23:00:33.884Z,70.56
2019-05-29T23:03:00.244Z,70.66
2019-05-29T23:05:26.973Z,70.78
2019-05-29T23:07:54.126Z,70.81
2019-05-29T23:10:20.513Z,70.70
2019-05-29T23:12:46.712Z,70.59
2019-05-29T23:15:13.225Z,70.77
2019-05-29T23:17:44.948Z,71.01
2019-05-29T23:20:11.381Z,70.90
2019-05-29T23:22:37.696Z,70.95
2019-05-29T23:25:04.696Z,71.18
2019-05-29T23:27:30.993Z,71.38
2019-05-29T23:29:57.298Z,71.58
2019-05-29T23:32:23.651Z,71.69
2019-05-29T23:34:50.070Z,71.41
2019-05-29T23:37:16.587Z,71.56
2019-05-29T23:39:42.876Z,71.85
2019-05-29T23:42:12.480Z,72.08
2019-05-29T23:44:38.975Z,72.07
2019-05-29T23:47:07.462Z,72.41
2019-05-29T23:49:34.086Z,72.22
2019-05-29T23:52:02.505Z,72.52
2019-05-29T23:54:28.799Z,72.48
2019-05-29T23:56:55.857Z,72.56
2019-05-29T23:59:22.404Z,72.75
